Time;durP1;ratioP1;P1;durP2;ratioP2;P2;SDS_P1;SDS_P2;PMS_P1;PMS_P2;Temp;Humidity;BMP_temperature;BMP_pressure;BME280_temperature;BME280_humidity;BME280_pressure;Samples;Min_cycle;Max_cycle;Signal;HPM_P1;HPM_P2
2022/09/11 00:02:08;;;;;;;6.93;4.00;;;;;;;;;;758569;184;919627;-55
2022/09/11 00:04:34;;;;;;;7.70;4.57;;;;;;;;;;755010;184;937131;-55
2022/09/11 00:06:59;;;;;;;6.47;3.67;;;;;;;;;;753617;184;925912;-55
2022/09/11 00:09:25;;;;;;;9.43;5.80;;;;;;;;;;749702;182;914871;-57
2022/09/11 00:11:51;;;;;;;8.00;5.10;;;;;;;;;;753824;185;918566;-54
2022/09/11 00:14:18;;;;;;;7.07;4.77;;;;;;;;;;740546;187;919885;-55
2022/09/11 00:16:43;;;;;;;5.47;3.90;;;;;;;;;;748249;185;919689;-54
2022/09/11 00:19:09;;;;;;;8.80;4.60;;;;;;;;;;756441;185;920180;-54
2022/09/11 00:21:35;;;;;;;9.03;4.63;;;;;;;;;;749995;184;816873;-55
2022/09/11 00:24:01;;;;;;;7.90;4.90;;;;;;;;;;748235;184;890668;-55
2022/09/11 00:26:27;;;;;;;5.90;4.63;;;;;;;;;;760772;184;919310;-55
2022/09/11 00:28:54;;;;;;;5.50;3.93;;;;;;;;;;755959;182;919981;-54
2022/09/11 00:31:19;;;;;;;8.33;5.00;;;;;;;;;;753513;182;810516;-55
2022/09/11 00:33:45;;;;;;;8.20;4.53;;;;;;;;;;757526;182;921624;-54
2022/09/11 00:36:11;;;;;;;11.20;6.43;;;;;;;;;;758480;184;917681;-54
2022/09/11 00:38:37;;;;;;;8.33;4.33;;;;;;;;;;736682;187;918647;-55
2022/09/11 00:41:03;;;;;;;8.20;4.37;;;;;;;;;;747666;185;919730;-54
2022/09/11 00:43:29;;;;;;;6.13;4.63;;;;;;;;;;761229;184;918732;-55
2022/09/11 00:45:55;;;;;;;8.40;4.87;;;;;;;;;;749969;183;919587;-54
2022/09/11 00:48:21;;;;;;;7.03;4.60;;;;;;;;;;752521;184;920024;-55
2022/09/11 00:50:47;;;;;;;5.30;3.70;;;;;;;;;;756747;185;919470;-55
2022/09/11 00:53:12;;;;;;;6.80;4.30;;;;;;;;;;745752;184;919733;-54
2022/09/11 00:55:38;;;;;;;6.13;4.20;;;;;;;;;;749248;182;818559;-54
2022/09/11 00:58:04;;;;;;;5.93;4.10;;;;;;;;;;747295;185;920901;-54
2022/09/11 01:00:30;;;;;;;5.43;3.67;;;;;;;;;;750759;185;818046;-55
2022/09/11 01:02:55;;;;;;;13.80;4.53;;;;;;;;;;752616;184;918944;-55
2022/09/11 01:05:21;;;;;;;20.10;4.30;;;;;;;;;;749509;185;920051;-54
2022/09/11 01:07:47;;;;;;;5.63;4.20;;;;;;;;;;758848;185;918338;-54
2022/09/11 01:10:13;;;;;;;5.50;4.13;;;;;;;;;;751078;185;817497;-54
2022/09/11 01:12:44;;;;;;;6.87;4.07;;;;;;;;;;750240;185;915878;-54
2022/09/11 01:15:12;;;;;;;7.35;4.32;;;;;;;;;;750280;185;920415;-56
2022/09/11 01:17:42;;;;;;;6.07;4.07;;;;;;;;;;751326;185;843150;-54
2022/09/11 01:20:29;;;;;;;13.10;4.30;;;;;;;;;;746232;184;920188;-54
2022/09/11 01:23:05;;;;;;;5.10;3.90;;;;;;;;;;755931;182;852189;-54
2022/09/11 01:25:46;;;;;;;5.20;3.83;;;;;;;;;;752406;184;918452;-53
2022/09/11 01:28:13;;;;;;;7.40;4.00;;;;;;;;;;753705;184;919451;-54
2022/09/11 01:30:39;;;;;;;23.55;6.03;;;;;;;;;;751761;184;919440;-55
2022/09/11 01:33:05;;;;;;;5.87;4.10;;;;;;;;;;752429;185;920217;-55
2022/09/11 01:35:32;;;;;;;8.13;5.00;;;;;;;;;;754955;183;915422;-54
2022/09/11 01:38:00;;;;;;;10.00;5.07;;;;;;;;;;751182;184;919943;-55
2022/09/11 01:40:25;;;;;;;7.03;4.37;;;;;;;;;;746640;185;928619;-54
2022/09/11 01:42:51;;;;;;;20.57;4.40;;;;;;;;;;761669;182;920384;-54
2022/09/11 01:45:17;;;;;;;9.20;3.80;;;;;;;;;;755647;183;921074;-56
2022/09/11 01:47:44;;;;;;;9.73;4.00;;;;;;;;;;749441;184;918662;-54
2022/09/11 01:50:09;;;;;;;6.70;3.67;;;;;;;;;;755420;184;917854;-54
2022/09/11 01:52:35;;;;;;;9.37;4.40;;;;;;;;;;758143;184;817595;-56
2022/09/11 01:55:01;;;;;;;7.77;4.17;;;;;;;;;;757404;184;963233;-54
2022/09/11 01:57:28;;;;;;;6.33;3.77;;;;;;;;;;760479;184;817073;-55
2022/09/11 01:59:54;;;;;;;5.23;4.07;;;;;;;;;;749167;186;830534;-54
2022/09/11 02:02:21;;;;;;;5.80;3.63;;;;;;;;;;757484;184;892708;-56
2022/09/11 02:04:46;;;;;;;5.00;3.60;;;;;;;;;;749039;185;917741;-54
2022/09/11 02:07:12;;;;;;;6.80;4.03;;;;;;;;;;753081;185;919200;-54
2022/09/11 02:09:38;;;;;;;7.53;3.33;;;;;;;;;;753531;182;818576;-55
2022/09/11 02:12:05;;;;;;;7.70;4.57;;;;;;;;;;755450;182;916245;-54
2022/09/11 02:14:30;;;;;;;8.17;4.83;;;;;;;;;;755983;185;916550;-56
2022/09/11 02:16:57;;;;;;;4.83;3.60;;;;;;;;;;756412;184;918923;-55
2022/09/11 02:19:23;;;;;;;4.90;3.37;;;;;;;;;;752194;183;918905;-53
2022/09/11 02:21:49;;;;;;;4.33;2.90;;;;;;;;;;751696;185;920017;-54
2022/09/11 02:24:14;;;;;;;6.27;3.70;;;;;;;;;;755177;182;919926;-56
2022/09/11 02:26:40;;;;;;;5.07;3.62;;;;;;;;;;752175;185;921189;-54
2022/09/11 02:29:06;;;;;;;4.63;3.33;;;;;;;;;;748593;185;918793;-54
2022/09/11 02:31:32;;;;;;;6.97;3.13;;;;;;;;;;757361;185;918836;-55
2022/09/11 02:33:58;;;;;;;4.67;3.27;;;;;;;;;;747864;185;920212;-54
2022/09/11 02:36:30;;;;;;;5.30;3.47;;;;;;;;;;756600;184;922700;-55
2022/09/11 02:39:01;;;;;;;6.90;3.83;;;;;;;;;;761239;185;920281;-56
2022/09/11 02:41:27;;;;;;;5.83;3.73;;;;;;;;;;759415;185;818407;-54
2022/09/11 02:44:03;;;;;;;6.53;3.60;;;;;;;;;;747734;185;919405;-55
2022/09/11 02:46:33;;;;;;;5.40;3.90;;;;;;;;;;753139;182;823524;-56
2022/09/11 02:48:59;;;;;;;6.30;3.17;;;;;;;;;;755567;182;919658;-56
2022/09/11 02:51:24;;;;;;;9.05;3.22;;;;;;;;;;750641;184;919559;-54
2022/09/11 02:53:55;;;;;;;7.33;3.60;;;;;;;;;;746795;184;919485;-55
2022/09/11 02:56:23;;;;;;;4.10;3.23;;;;;;;;;;756054;184;920231;-55
2022/09/11 02:58:49;;;;;;;6.10;3.83;;;;;;;;;;757776;184;919881;-54
2022/09/11 03:01:15;;;;;;;6.43;4.13;;;;;;;;;;757642;184;919426;-54
2022/09/11 03:03:42;;;;;;;4.70;3.50;;;;;;;;;;749873;184;868559;-54
2022/09/11 03:06:07;;;;;;;5.80;3.90;;;;;;;;;;752561;185;919721;-56
2022/09/11 03:08:33;;;;;;;5.30;3.77;;;;;;;;;;758097;184;919681;-54
2022/09/11 03:10:59;;;;;;;4.07;3.03;;;;;;;;;;754738;184;919690;-55
2022/09/11 03:13:25;;;;;;;5.78;3.37;;;;;;;;;;750140;182;919795;-56
2022/09/11 03:15:51;;;;;;;8.87;3.90;;;;;;;;;;754974;184;920060;-55
2022/09/11 03:18:17;;;;;;;7.13;3.13;;;;;;;;;;751390;184;919663;-54
2022/09/11 03:20:44;;;;;;;7.00;3.23;;;;;;;;;;753404;184;918398;-55
2022/09/11 03:23:09;;;;;;;5.13;3.47;;;;;;;;;;754949;185;920838;-54
2022/09/11 03:25:35;;;;;;;6.00;4.10;;;;;;;;;;751303;184;858375;-54
2022/09/11 03:28:03;;;;;;;7.97;5.17;;;;;;;;;;748341;184;917609;-56
2022/09/11 03:30:27;;;;;;;6.13;3.67;;;;;;;;;;753633;184;919505;-56
2022/09/11 03:32:53;;;;;;;5.37;3.83;;;;;;;;;;755995;185;919867;-56
2022/09/11 03:35:19;;;;;;;5.00;4.20;;;;;;;;;;751579;185;861667;-55
2022/09/11 03:37:45;;;;;;;4.43;3.23;;;;;;;;;;754616;184;818114;-56
2022/09/11 03:40:10;;;;;;;5.60;3.57;;;;;;;;;;754569;184;928343;-56
2022/09/11 03:42:36;;;;;;;5.33;3.50;;;;;;;;;;739359;187;917566;-54
2022/09/11 03:45:02;;;;;;;6.20;4.00;;;;;;;;;;752674;184;918623;-55
2022/09/11 03:47:28;;;;;;;5.67;4.10;;;;;;;;;;758657;184;922838;-54
2022/09/11 03:49:54;;;;;;;5.00;4.50;;;;;;;;;;750082;185;920495;-54
2022/09/11 03:52:20;;;;;;;5.37;4.00;;;;;;;;;;753619;184;919420;-54
2022/09/11 03:54:46;;;;;;;6.30;4.97;;;;;;;;;;747089;182;920226;-56
2022/09/11 03:57:11;;;;;;;9.73;4.10;;;;;;;;;;757742;184;917122;-55
2022/09/11 03:59:37;;;;;;;6.93;4.73;;;;;;;;;;753842;184;919860;-54
2022/09/11 04:02:03;;;;;;;6.00;4.10;;;;;;;;;;746644;182;919926;-56
2022/09/11 04:04:29;;;;;;;6.90;4.60;;;;;;;;;;758737;184;920172;-55
2022/09/11 04:06:54;;;;;;;5.25;4.22;;;;;;;;;;755300;182;919685;-55
2022/09/11 04:09:20;;;;;;;5.83;3.87;;;;;;;;;;756013;184;816406;-56
2022/09/11 04:11:46;;;;;;;6.30;3.97;;;;;;;;;;754781;184;921561;-55
2022/09/11 04:14:12;;;;;;;6.47;4.07;;;;;;;;;;754998;184;919654;-56
2022/09/11 04:16:38;;;;;;;5.37;4.20;;;;;;;;;;751217;183;918755;-55
2022/09/11 04:19:04;;;;;;;8.40;4.90;;;;;;;;;;754577;183;816841;-55
2022/09/11 04:21:30;;;;;;;6.07;4.00;;;;;;;;;;756166;184;897914;-56
2022/09/11 04:23:59;;;;;;;7.03;4.17;;;;;;;;;;754747;184;919932;-56
2022/09/11 04:26:21;;;;;;;6.55;4.72;;;;;;;;;;753841;184;919862;-54
2022/09/11 04:28:47;;;;;;;5.53;4.13;;;;;;;;;;755080;185;919704;-55
2022/09/11 04:31:13;;;;;;;8.73;4.80;;;;;;;;;;752720;184;920473;-56
2022/09/11 04:33:39;;;;;;;11.60;4.77;;;;;;;;;;755853;184;917605;-56
2022/09/11 04:36:06;;;;;;;7.30;4.53;;;;;;;;;;756370;184;919698;-55
2022/09/11 04:38:32;;;;;;;8.10;4.65;;;;;;;;;;756492;184;919508;-56
2022/09/11 04:40:58;;;;;;;6.30;4.50;;;;;;;;;;750045;183;919831;-55
2022/09/11 04:43:23;;;;;;;12.93;4.50;;;;;;;;;;757717;182;920125;-55
2022/09/11 04:45:49;;;;;;;6.73;3.60;;;;;;;;;;754680;183;921435;-55
2022/09/11 04:48:15;;;;;;;5.77;4.83;;;;;;;;;;754531;184;917723;-54
2022/09/11 04:50:41;;;;;;;6.80;5.10;;;;;;;;;;748842;185;919373;-55
2022/09/11 04:53:06;;;;;;;8.47;5.70;;;;;;;;;;757778;184;817140;-54
2022/09/11 04:55:32;;;;;;;8.07;5.77;;;;;;;;;;752016;184;819300;-55
2022/09/11 04:57:58;;;;;;;8.80;6.12;;;;;;;;;;754617;184;919329;-56
2022/09/11 05:00:24;;;;;;;8.83;5.33;;;;;;;;;;754220;183;817368;-55
2022/09/11 05:02:50;;;;;;;9.07;6.40;;;;;;;;;;750492;182;915573;-55
2022/09/11 05:05:16;;;;;;;8.37;5.50;;;;;;;;;;753067;185;919848;-54
2022/09/11 05:07:42;;;;;;;6.83;5.70;;;;;;;;;;758662;184;909932;-54
2022/09/11 05:10:08;;;;;;;8.00;5.23;;;;;;;;;;753572;184;919280;-54
2022/09/11 05:12:33;;;;;;;6.87;5.40;;;;;;;;;;750025;182;920622;-54
2022/09/11 05:14:59;;;;;;;7.70;5.80;;;;;;;;;;747279;183;920496;-54
2022/09/11 05:17:25;;;;;;;9.00;6.60;;;;;;;;;;752022;184;893746;-54
2022/09/11 05:19:51;;;;;;;12.80;6.63;;;;;;;;;;757208;181;919226;-56
2022/09/11 05:22:17;;;;;;;7.77;6.60;;;;;;;;;;750836;184;919672;-54
2022/09/11 05:24:43;;;;;;;7.90;6.43;;;;;;;;;;756643;184;919652;-54
2022/09/11 05:27:09;;;;;;;7.73;6.20;;;;;;;;;;754861;182;919909;-55
2022/09/11 05:29:34;;;;;;;8.00;6.07;;;;;;;;;;750368;184;920093;-55
2022/09/11 05:32:01;;;;;;;10.70;6.80;;;;;;;;;;754764;184;919535;-56
2022/09/11 05:34:28;;;;;;;11.80;8.52;;;;;;;;;;754297;184;919295;-55
2022/09/11 05:36:56;;;;;;;13.60;8.50;;;;;;;;;;754116;182;920343;-55
2022/09/11 05:39:19;;;;;;;9.80;7.20;;;;;;;;;;754742;182;868256;-56
2022/09/11 05:41:45;;;;;;;10.83;8.00;;;;;;;;;;762490;182;920558;-56
2022/09/11 05:44:11;;;;;;;9.80;7.83;;;;;;;;;;755459;184;921479;-55
2022/09/11 05:46:37;;;;;;;8.97;7.70;;;;;;;;;;753581;184;920907;-54
2022/09/11 05:49:03;;;;;;;10.37;8.57;;;;;;;;;;758789;184;818752;-54
2022/09/11 05:51:29;;;;;;;8.90;7.47;;;;;;;;;;759110;182;815925;-55
2022/09/11 05:53:55;;;;;;;11.67;8.27;;;;;;;;;;750879;185;919449;-56
2022/09/11 05:56:21;;;;;;;12.83;7.90;;;;;;;;;;755509;185;816879;-54
2022/09/11 05:58:46;;;;;;;10.00;7.83;;;;;;;;;;751814;185;920219;-55
2022/09/11 06:01:12;;;;;;;9.57;7.70;;;;;;;;;;755142;182;915010;-54
2022/09/11 06:03:39;;;;;;;9.25;8.15;;;;;;;;;;755020;185;918616;-56
2022/09/11 06:06:05;;;;;;;12.30;7.77;;;;;;;;;;755247;183;885836;-54
2022/09/11 06:08:33;;;;;;;10.23;7.13;;;;;;;;;;750474;185;817213;-56
2022/09/11 06:10:57;;;;;;;12.60;9.40;;;;;;;;;;751364;184;918941;-55
2022/09/11 06:13:22;;;;;;;8.77;7.50;;;;;;;;;;758534;184;821185;-54
2022/09/11 06:15:48;;;;;;;9.00;7.57;;;;;;;;;;747722;185;919342;-56
2022/09/11 06:18:14;;;;;;;10.47;7.73;;;;;;;;;;752494;184;1031436;-56
2022/09/11 06:20:40;;;;;;;10.60;8.27;;;;;;;;;;757273;185;918040;-54
2022/09/11 06:23:06;;;;;;;10.97;8.80;;;;;;;;;;755850;184;918529;-54
2022/09/11 06:25:32;;;;;;;13.97;8.30;;;;;;;;;;752304;184;1021862;-56
2022/09/11 06:27:58;;;;;;;15.93;7.20;;;;;;;;;;758975;184;917305;-54
2022/09/11 06:30:23;;;;;;;14.57;8.23;;;;;;;;;;753225;184;918542;-55
2022/09/11 06:32:50;;;;;;;10.33;7.50;;;;;;;;;;757071;180;919520;-55
2022/09/11 06:35:15;;;;;;;8.50;6.10;;;;;;;;;;749064;184;919395;-56
2022/09/11 06:37:41;;;;;;;9.07;7.07;;;;;;;;;;759698;184;919561;-56
2022/09/11 06:40:07;;;;;;;13.05;7.07;;;;;;;;;;750324;180;918630;-54
2022/09/11 06:42:33;;;;;;;12.85;7.53;;;;;;;;;;748689;184;919409;-55
2022/09/11 06:44:59;;;;;;;10.23;8.57;;;;;;;;;;756086;184;918713;-54
2022/09/11 06:47:25;;;;;;;9.53;8.50;;;;;;;;;;753804;184;921411;-54
2022/09/11 06:49:51;;;;;;;9.60;7.30;;;;;;;;;;754552;184;918497;-54
2022/09/11 06:52:16;;;;;;;9.83;6.77;;;;;;;;;;754811;184;723916;-54
2022/09/11 06:54:43;;;;;;;11.33;6.43;;;;;;;;;;754875;184;919599;-55
2022/09/11 06:57:08;;;;;;;10.00;8.60;;;;;;;;;;750560;182;818815;-54
2022/09/11 06:59:34;;;;;;;18.03;11.03;;;;;;;;;;754460;184;820956;-56
2022/09/11 07:02:00;;;;;;;12.00;10.02;;;;;;;;;;759287;184;925434;-55
2022/09/11 07:04:27;;;;;;;12.43;10.23;;;;;;;;;;752152;185;817052;-55
2022/09/11 07:06:52;;;;;;;12.70;9.80;;;;;;;;;;755876;184;917981;-54
2022/09/11 07:09:17;;;;;;;9.83;7.90;;;;;;;;;;759922;180;920159;-55
2022/09/11 07:11:45;;;;;;;9.53;8.57;;;;;;;;;;751696;184;932270;-55
2022/09/11 07:14:09;;;;;;;15.70;9.60;;;;;;;;;;752928;184;919819;-56
2022/09/11 07:16:35;;;;;;;10.33;8.93;;;;;;;;;;751993;182;922954;-56
2022/09/11 07:19:02;;;;;;;17.40;11.40;;;;;;;;;;750165;185;920532;-54
2022/09/11 07:21:27;;;;;;;11.20;10.00;;;;;;;;;;753630;182;919039;-56
2022/09/11 07:23:54;;;;;;;12.90;10.10;;;;;;;;;;753006;184;919323;-55
2022/09/11 07:26:19;;;;;;;16.03;10.67;;;;;;;;;;755025;185;915885;-55
2022/09/11 07:28:47;;;;;;;13.33;10.90;;;;;;;;;;748824;184;920074;-55
2022/09/11 07:31:11;;;;;;;13.67;11.80;;;;;;;;;;749411;184;919481;-55
2022/09/11 07:33:38;;;;;;;14.37;11.47;;;;;;;;;;757114;184;919076;-55
2022/09/11 07:36:05;;;;;;;15.47;12.60;;;;;;;;;;750846;184;919301;-55
2022/09/11 07:38:31;;;;;;;13.23;11.17;;;;;;;;;;754188;182;919560;-55
2022/09/11 07:40:57;;;;;;;13.47;11.93;;;;;;;;;;757699;184;919046;-54
2022/09/11 07:43:23;;;;;;;14.65;12.48;;;;;;;;;;757860;184;918974;-55
2022/09/11 07:45:49;;;;;;;16.00;11.80;;;;;;;;;;756515;184;919844;-54
2022/09/11 07:48:15;;;;;;;14.80;11.00;;;;;;;;;;756103;184;919989;-56
2022/09/11 07:50:41;;;;;;;17.97;10.50;;;;;;;;;;756026;184;918694;-55
2022/09/11 07:53:07;;;;;;;11.00;9.80;;;;;;;;;;754410;184;918206;-56
2022/09/11 07:55:33;;;;;;;11.67;10.47;;;;;;;;;;748729;184;921767;-56
2022/09/11 07:57:59;;;;;;;14.07;10.93;;;;;;;;;;760839;184;609575;-55
2022/09/11 08:00:25;;;;;;;11.57;10.37;;;;;;;;;;759797;184;620566;-55
2022/09/11 08:02:51;;;;;;;12.37;10.50;;;;;;;;;;757434;184;714662;-55
2022/09/11 08:05:17;;;;;;;11.00;9.90;;;;;;;;;;757484;182;692178;-54
2022/09/11 08:07:42;;;;;;;13.23;9.83;;;;;;;;;;760241;184;716825;-55
2022/09/11 08:10:09;;;;;;;10.53;9.43;;;;;;;;;;758112;185;617594;-56
2022/09/11 08:12:34;;;;;;;12.13;9.33;;;;;;;;;;753870;185;615344;-55
2022/09/11 08:15:01;;;;;;;12.68;9.13;;;;;;;;;;759942;182;913521;-54
2022/09/11 08:17:26;;;;;;;14.23;10.03;;;;;;;;;;751260;184;919956;-56
2022/09/11 08:19:52;;;;;;;13.80;9.60;;;;;;;;;;750666;185;920040;-54
2022/09/11 08:22:18;;;;;;;10.23;8.60;;;;;;;;;;757836;184;822341;-54
2022/09/11 08:24:43;;;;;;;11.83;9.37;;;;;;;;;;751303;184;920742;-55
2022/09/11 08:27:09;;;;;;;11.80;9.65;;;;;;;;;;754192;184;919728;-54
2022/09/11 08:29:35;;;;;;;10.87;9.13;;;;;;;;;;756808;184;912226;-56
2022/09/11 08:32:01;;;;;;;10.80;9.30;;;;;;;;;;747875;185;916366;-55
2022/09/11 08:34:27;;;;;;;11.73;8.73;;;;;;;;;;758328;184;913706;-56
2022/09/11 08:36:53;;;;;;;10.43;9.33;;;;;;;;;;750179;184;817940;-57
2022/09/11 08:39:19;;;;;;;13.17;9.30;;;;;;;;;;757218;185;869223;-55
2022/09/11 08:41:47;;;;;;;9.10;8.00;;;;;;;;;;754143;184;815305;-54
2022/09/11 08:44:14;;;;;;;11.33;8.53;;;;;;;;;;745696;184;918566;-54
2022/09/11 08:46:38;;;;;;;10.97;8.13;;;;;;;;;;753739;184;917672;-54
2022/09/11 08:49:06;;;;;;;9.23;7.20;;;;;;;;;;751456;184;917383;-55
2022/09/11 08:51:32;;;;;;;8.50;7.03;;;;;;;;;;754080;184;900034;-54
2022/09/11 08:53:57;;;;;;;9.30;8.40;;;;;;;;;;758577;183;919444;-54
2022/09/11 08:56:23;;;;;;;9.20;7.57;;;;;;;;;;755798;184;919894;-54
2022/09/11 08:58:56;;;;;;;10.57;7.37;;;;;;;;;;750878;181;923134;-55
2022/09/11 09:01:26;;;;;;;8.13;7.13;;;;;;;;;;754449;184;919521;-54
2022/09/11 09:03:52;;;;;;;11.10;7.17;;;;;;;;;;754449;184;919488;-54
2022/09/11 09:06:20;;;;;;;7.27;6.57;;;;;;;;;;748407;184;921018;-54
2022/09/11 09:08:48;;;;;;;10.90;6.40;;;;;;;;;;751943;182;919660;-55
2022/09/11 09:11:12;;;;;;;8.43;7.53;;;;;;;;;;755146;184;920343;-56
2022/09/11 09:13:44;;;;;;;9.80;7.07;;;;;;;;;;755695;182;815889;-56
2022/09/11 09:16:20;;;;;;;11.50;7.57;;;;;;;;;;735960;188;918875;-55
2022/09/11 09:18:49;;;;;;;10.37;8.07;;;;;;;;;;751959;185;917061;-54
2022/09/11 09:21:15;;;;;;;9.33;7.37;;;;;;;;;;754968;184;817594;-54
2022/09/11 09:23:42;;;;;;;9.30;8.33;;;;;;;;;;758013;180;823379;-54
2022/09/11 09:26:09;;;;;;;8.83;7.70;;;;;;;;;;746947;185;919274;-54
2022/09/11 09:28:37;;;;;;;11.53;9.30;;;;;;;;;;752670;184;886516;-55
2022/09/11 09:31:06;;;;;;;8.27;7.13;;;;;;;;;;752955;181;716396;-56
2022/09/11 09:33:30;;;;;;;8.73;7.80;;;;;;;;;;754483;182;919816;-55
2022/09/11 09:35:56;;;;;;;13.33;8.43;;;;;;;;;;751236;185;874576;-54
2022/09/11 09:38:21;;;;;;;9.33;7.27;;;;;;;;;;752590;185;919903;-55
2022/09/11 09:41:04;;;;;;;11.83;9.03;;;;;;;;;;756900;185;921505;-54
2022/09/11 09:43:35;;;;;;;8.70;7.47;;;;;;;;;;762673;183;816609;-55
2022/09/11 09:46:03;;;;;;;8.60;7.60;;;;;;;;;;755185;185;859474;-55
2022/09/11 09:48:28;;;;;;;8.63;6.80;;;;;;;;;;757173;184;817854;-55
2022/09/11 09:50:55;;;;;;;10.67;7.80;;;;;;;;;;750624;184;898151;-55
2022/09/11 09:53:26;;;;;;;7.33;6.63;;;;;;;;;;758029;182;915725;-54
2022/09/11 09:55:52;;;;;;;7.93;6.47;;;;;;;;;;753827;184;935602;-56
2022/09/11 09:58:17;;;;;;;7.78;6.15;;;;;;;;;;755286;184;920094;-55
2022/09/11 10:00:44;;;;;;;7.03;6.33;;;;;;;;;;751688;184;920266;-56
2022/09/11 10:03:17;;;;;;;8.40;6.67;;;;;;;;;;757222;182;919926;-54
2022/09/11 10:05:42;;;;;;;8.07;6.10;;;;;;;;;;754552;184;919867;-55
2022/09/11 10:08:10;;;;;;;12.37;8.20;;;;;;;;;;748866;183;919816;-54
2022/09/11 10:10:36;;;;;;;10.43;8.40;;;;;;;;;;752061;184;919109;-54
2022/09/11 10:13:02;;;;;;;10.73;6.40;;;;;;;;;;756778;184;896034;-55
2022/09/11 10:15:28;;;;;;;6.90;6.20;;;;;;;;;;749714;184;918603;-60
2022/09/11 10:17:54;;;;;;;8.00;6.17;;;;;;;;;;756677;184;865355;-56
2022/09/11 10:20:21;;;;;;;7.60;6.60;;;;;;;;;;754596;183;918441;-55
2022/09/11 10:22:47;;;;;;;6.47;5.87;;;;;;;;;;756557;184;919690;-55
2022/09/11 10:25:13;;;;;;;8.50;6.50;;;;;;;;;;757224;184;919681;-55
2022/09/11 10:27:55;;;;;;;6.97;5.73;;;;;;;;;;756644;185;919063;-55
2022/09/11 10:30:24;;;;;;;9.13;6.90;;;;;;;;;;760156;181;816696;-55
2022/09/11 10:32:50;;;;;;;9.63;7.23;;;;;;;;;;755647;184;813908;-54
2022/09/11 10:35:16;;;;;;;8.27;6.80;;;;;;;;;;747745;185;919534;-55
2022/09/11 10:37:42;;;;;;;11.13;6.30;;;;;;;;;;752799;184;920873;-55
2022/09/11 10:40:08;;;;;;;8.43;6.60;;;;;;;;;;751714;185;918938;-55
2022/09/11 10:42:34;;;;;;;6.73;6.03;;;;;;;;;;752123;180;919938;-55
2022/09/11 10:45:09;;;;;;;6.37;5.23;;;;;;;;;;754609;184;920440;-54
2022/09/11 10:47:36;;;;;;;7.33;5.90;;;;;;;;;;749648;185;906046;-55
2022/09/11 10:50:07;;;;;;;10.20;7.37;;;;;;;;;;762099;182;845652;-55
2022/09/11 10:52:33;;;;;;;8.33;6.20;;;;;;;;;;750297;185;869493;-55
2022/09/11 10:55:00;;;;;;;14.40;9.37;;;;;;;;;;752691;184;918509;-56
2022/09/11 10:57:29;;;;;;;9.93;4.47;;;;;;;;;;758078;184;917890;-55
2022/09/11 10:59:57;;;;;;;8.23;5.43;;;;;;;;;;761374;184;917155;-55
2022/09/11 11:02:29;;;;;;;6.40;5.43;;;;;;;;;;751237;185;919638;-55
2022/09/11 11:04:55;;;;;;;7.37;5.10;;;;;;;;;;753856;184;919455;-55
2022/09/11 11:07:25;;;;;;;5.90;3.80;;;;;;;;;;760882;184;919733;-55
2022/09/11 11:09:53;;;;;;;5.73;4.27;;;;;;;;;;754032;184;919883;-55
2022/09/11 11:12:22;;;;;;;5.37;4.30;;;;;;;;;;751475;184;932846;-55
2022/09/11 11:14:49;;;;;;;5.97;3.90;;;;;;;;;;749280;184;919886;-56
2022/09/11 11:17:33;;;;;;;6.87;3.87;;;;;;;;;;759698;184;921540;-55
2022/09/11 11:20:12;;;;;;;4.50;3.90;;;;;;;;;;760298;183;919209;-55
2022/09/11 11:22:40;;;;;;;5.03;3.90;;;;;;;;;;762687;182;916444;-55
2022/09/11 11:25:26;;;;;;;4.53;3.87;;;;;;;;;;748953;183;918635;-54
2022/09/11 11:27:52;;;;;;;6.00;4.87;;;;;;;;;;759048;184;919656;-54
2022/09/11 11:30:18;;;;;;;6.97;4.83;;;;;;;;;;748356;184;918611;-54
2022/09/11 11:32:44;;;;;;;6.50;4.97;;;;;;;;;;750320;184;919703;-54
2022/09/11 11:35:32;;;;;;;5.70;4.60;;;;;;;;;;758348;184;918924;-54
2022/09/11 11:37:55;;;;;;;6.77;4.60;;;;;;;;;;754312;184;918243;-54
2022/09/11 11:40:36;;;;;;;8.87;4.83;;;;;;;;;;750489;185;926547;-56
2022/09/11 11:43:02;;;;;;;6.33;5.03;;;;;;;;;;755651;184;920110;-56
2022/09/11 11:45:31;;;;;;;7.93;5.47;;;;;;;;;;750901;183;918885;-55
2022/09/11 11:47:59;;;;;;;5.90;4.95;;;;;;;;;;755788;184;919880;-55
2022/09/11 11:50:28;;;;;;;6.80;4.67;;;;;;;;;;761151;177;920850;-56
2022/09/11 11:53:15;;;;;;;6.30;4.67;;;;;;;;;;747822;181;920414;-55
2022/09/11 11:55:46;;;;;;;5.73;4.70;;;;;;;;;;750615;184;903143;-55
2022/09/11 11:58:14;;;;;;;5.80;4.53;;;;;;;;;;757584;184;815469;-55
2022/09/11 12:00:40;;;;;;;7.73;4.07;;;;;;;;;;748228;185;916438;-55
2022/09/11 12:03:07;;;;;;;8.53;6.40;;;;;;;;;;756687;184;918355;-55
2022/09/11 12:05:33;;;;;;;12.07;8.10;;;;;;;;;;754916;184;919537;-55
2022/09/11 12:07:59;;;;;;;5.60;3.87;;;;;;;;;;752845;181;919632;-56
2022/09/11 12:10:29;;;;;;;3.77;2.93;;;;;;;;;;754227;185;817215;-55
2022/09/11 12:12:58;;;;;;;4.10;3.23;;;;;;;;;;751212;185;918875;-54
2022/09/11 12:15:24;;;;;;;3.43;2.47;;;;;;;;;;746864;185;919511;-55
2022/09/11 12:17:58;;;;;;;7.07;3.70;;;;;;;;;;752084;181;916570;-55
2022/09/11 12:20:28;;;;;;;6.57;3.40;;;;;;;;;;752400;184;909336;-54
2022/09/11 12:22:53;;;;;;;6.90;3.33;;;;;;;;;;758953;185;919812;-54
2022/09/11 12:25:34;;;;;;;4.50;3.33;;;;;;;;;;752386;181;922056;-55
2022/09/11 12:28:06;;;;;;;5.40;3.80;;;;;;;;;;756850;182;919577;-54
2022/09/11 12:30:32;;;;;;;4.53;3.23;;;;;;;;;;756498;184;919072;-56
2022/09/11 12:32:59;;;;;;;5.77;3.43;;;;;;;;;;751630;184;919633;-55
2022/09/11 12:35:40;;;;;;;6.63;3.23;;;;;;;;;;755653;183;918140;-54
2022/09/11 12:38:21;;;;;;;4.27;3.53;;;;;;;;;;755460;184;872336;-55
2022/09/11 12:40:52;;;;;;;3.70;2.60;;;;;;;;;;758248;182;929950;-56
2022/09/11 12:43:33;;;;;;;3.27;2.87;;;;;;;;;;755953;183;917466;-56
2022/09/11 12:45:59;;;;;;;6.70;2.30;;;;;;;;;;752600;184;920760;-56
2022/09/11 12:48:24;;;;;;;4.13;2.83;;;;;;;;;;755201;184;912517;-55
2022/09/11 12:50:52;;;;;;;4.18;2.53;;;;;;;;;;755145;185;919200;-55
2022/09/11 12:53:18;;;;;;;4.80;2.73;;;;;;;;;;749182;184;921740;-56
2022/09/11 12:55:50;;;;;;;3.47;2.60;;;;;;;;;;754326;184;916939;-56
2022/09/11 12:58:27;;;;;;;4.45;3.00;;;;;;;;;;750330;182;919381;-55
2022/09/11 13:00:58;;;;;;;3.10;2.57;;;;;;;;;;753487;185;817122;-55
2022/09/11 13:03:26;;;;;;;3.58;2.40;;;;;;;;;;755342;185;923223;-55
2022/09/11 13:05:54;;;;;;;7.10;1.87;;;;;;;;;;749032;184;820991;-56
2022/09/11 13:08:21;;;;;;;2.50;1.40;;;;;;;;;;747685;185;918522;-54
2022/09/11 13:10:45;;;;;;;3.70;1.77;;;;;;;;;;758153;184;890686;-54
2022/09/11 13:13:29;;;;;;;2.90;1.80;;;;;;;;;;753367;184;919358;-54
2022/09/11 13:15:57;;;;;;;3.67;2.17;;;;;;;;;;752212;183;943260;-55
2022/09/11 13:18:25;;;;;;;3.43;2.20;;;;;;;;;;753407;184;919051;-55
2022/09/11 13:20:57;;;;;;;2.95;1.80;;;;;;;;;;754452;184;918631;-56
2022/09/11 13:23:22;;;;;;;3.80;2.40;;;;;;;;;;754764;183;918331;-56
2022/09/11 13:25:47;;;;;;;2.63;2.03;;;;;;;;;;751613;183;917310;-56
2022/09/11 13:28:14;;;;;;;3.07;2.00;;;;;;;;;;749913;184;919798;-56
2022/09/11 13:30:39;;;;;;;4.17;2.20;;;;;;;;;;755168;184;921362;-56
2022/09/11 13:33:05;;;;;;;3.80;1.97;;;;;;;;;;749823;185;921448;-55
2022/09/11 13:35:31;;;;;;;3.80;2.40;;;;;;;;;;755896;184;909531;-56
2022/09/11 13:38:12;;;;;;;3.60;2.30;;;;;;;;;;749537;184;921492;-56
2022/09/11 13:40:39;;;;;;;3.70;2.10;;;;;;;;;;759518;183;817823;-56
2022/09/11 13:43:04;;;;;;;2.93;2.20;;;;;;;;;;761609;182;819037;-55
2022/09/11 13:45:30;;;;;;;2.70;2.20;;;;;;;;;;750250;184;816579;-56
2022/09/11 13:47:56;;;;;;;3.40;2.00;;;;;;;;;;750062;184;918806;-56
2022/09/11 13:50:22;;;;;;;3.00;1.90;;;;;;;;;;761061;184;858578;-55
2022/09/11 13:52:48;;;;;;;4.60;2.33;;;;;;;;;;751597;184;918940;-55
2022/09/11 13:55:17;;;;;;;5.90;3.47;;;;;;;;;;754533;184;921393;-55
2022/09/11 13:57:57;;;;;;;3.63;2.13;;;;;;;;;;760818;184;881289;-56
2022/09/11 14:00:43;;;;;;;3.10;2.10;;;;;;;;;;758338;182;916272;-55
2022/09/11 14:03:15;;;;;;;2.90;2.10;;;;;;;;;;754931;185;924517;-55
2022/09/11 14:05:40;;;;;;;2.87;2.03;;;;;;;;;;761284;185;762545;-54
2022/09/11 14:08:06;;;;;;;3.73;2.47;;;;;;;;;;756797;184;817577;-56
2022/09/11 14:10:32;;;;;;;3.07;2.00;;;;;;;;;;756855;184;814615;-56
2022/09/11 14:13:04;;;;;;;4.43;2.57;;;;;;;;;;758018;184;817101;-55
2022/09/11 14:15:30;;;;;;;4.07;2.63;;;;;;;;;;753251;182;906130;-56
2022/09/11 14:17:55;;;;;;;7.10;2.20;;;;;;;;;;752643;184;940521;-55
2022/09/11 14:20:22;;;;;;;4.50;2.57;;;;;;;;;;753191;182;916372;-56
2022/09/11 14:22:47;;;;;;;3.17;2.13;;;;;;;;;;759952;184;915262;-54
2022/09/11 14:25:18;;;;;;;2.40;1.80;;;;;;;;;;752410;185;821330;-54
2022/09/11 14:27:43;;;;;;;4.43;2.27;;;;;;;;;;751512;184;823442;-55